Time;durP1;ratioP1;P1;durP2;ratioP2;P2;SDS_P1;SDS_P2;PMS_P1;PMS_P2;Temp;Humidity;BMP_temperature;BMP_pressure;BME280_temperature;BME280_humidity;BME280_pressure;Samples;Min_cycle;Max_cycle;Signal;HPM_P1;HPM_P2
2021/01/05 00:02:22;;;;;;;24.75;11.63;;;;;;;1.01;100.00;101592.09;6233419;28;20050;-72
2021/01/05 00:05:24;;;;;;;25.80;10.80;;;;;;;1.13;100.00;101592.94;6235701;28;20122;-72
2021/01/05 00:08:24;;;;;;;21.90;10.88;;;;;;;1.04;100.00;101598.13;6232975;28;20050;-72
2021/01/05 00:11:25;;;;;;;20.45;9.95;;;;;;;1.09;100.00;101598.97;6234815;28;20513;-72
2021/01/05 00:14:27;;;;;;;23.33;11.20;;;;;;;1.07;100.00;101596.41;6233279;28;20111;-72
2021/01/05 00:17:28;;;;;;;19.95;10.70;;;;;;;1.05;100.00;101594.69;6234461;28;20045;-72
2021/01/05 00:20:32;;;;;;;24.58;11.75;;;;;;;1.06;100.00;101599.00;6233227;28;20187;-72
2021/01/05 00:23:33;;;;;;;21.98;11.25;;;;;;;1.08;100.00;101598.13;6236122;28;20087;-72
2021/01/05 00:26:35;;;;;;;27.75;12.50;;;;;;;1.07;100.00;101593.81;6233621;28;20050;-72
2021/01/05 00:29:36;;;;;;;25.80;12.48;;;;;;;1.08;100.00;101600.69;6233182;28;20072;-72
2021/01/05 00:32:40;;;;;;;25.63;11.38;;;;;;;1.07;100.00;101598.97;6234588;28;20052;-72
2021/01/05 00:35:41;;;;;;;28.05;12.32;;;;;;;1.08;100.00;101599.84;6232699;28;20053;-74
2021/01/05 00:38:42;;;;;;;27.45;12.20;;;;;;;1.04;100.00;101596.38;6231874;28;20111;-74
2021/01/05 00:41:43;;;;;;;24.67;10.48;;;;;;;1.05;100.00;101594.69;6235160;28;20081;-74
2021/01/05 00:44:45;;;;;;;23.45;10.32;;;;;;;1.07;100.00;101596.41;6268374;23;20049;-73
2021/01/05 00:47:46;;;;;;;21.08;10.43;;;;;;;1.10;100.00;101596.41;6245350;28;20060;-72
2021/01/05 00:50:46;;;;;;;26.65;11.75;;;;;;;1.08;100.00;101600.69;6245932;28;20499;-72
2021/01/05 00:53:47;;;;;;;23.00;10.85;;;;;;;1.11;100.00;101599.84;6246091;28;20057;-72
2021/01/05 00:56:59;;;;;;;21.30;10.38;;;;;;;1.14;100.00;101607.63;6245911;28;20122;-73
2021/01/05 01:00:01;;;;;;;25.40;10.70;;;;;;;1.08;100.00;101605.88;6245964;28;20049;-72
2021/01/05 01:03:02;;;;;;;22.55;11.13;;;;;;;1.09;100.00;101601.56;6243201;28;20413;-73
2021/01/05 01:06:03;;;;;;;20.98;10.20;;;;;;;1.15;100.00;101604.16;6231854;28;20096;-73
2021/01/05 01:09:04;;;;;;;19.70;10.80;;;;;;;1.14;100.00;101603.31;6226519;28;20049;-71
2021/01/05 01:12:14;;;;;;;24.63;11.73;;;;;;;1.14;100.00;101600.72;6226885;28;20049;-72
2021/01/05 01:15:15;;;;;;;23.88;10.70;;;;;;;1.17;100.00;101600.69;6226833;28;20054;-72
2021/01/05 01:18:16;;;;;;;18.55;10.13;;;;;;;1.18;100.00;101604.16;6226385;28;20137;-73
2021/01/05 01:21:17;;;;;;;21.52;11.02;;;;;;;1.13;100.00;101604.16;6229809;28;20073;-72
2021/01/05 01:24:20;;;;;;;21.27;9.75;;;;;;;1.13;100.00;101596.38;6250967;28;20068;-72
2021/01/05 01:27:21;;;;;;;21.15;10.43;;;;;;;1.11;100.00;101605.88;6250732;28;20049;-72
2021/01/05 01:30:23;;;;;;;20.73;10.63;;;;;;;1.12;100.00;101602.44;6250474;28;20045;-72
2021/01/05 01:33:24;;;;;;;18.30;10.10;;;;;;;1.15;100.00;101604.16;6251019;28;20060;-72
2021/01/05 01:36:25;;;;;;;18.77;10.07;;;;;;;1.14;100.00;101602.44;6250527;28;20494;-72
2021/01/05 01:39:27;;;;;;;21.73;10.57;;;;;;;1.12;100.00;101597.25;6250132;28;20050;-72
2021/01/05 01:42:28;;;;;;;21.25;10.18;;;;;;;1.13;100.00;101603.28;6250832;28;20053;-72
2021/01/05 01:45:30;;;;;;;19.98;9.80;;;;;;;1.13;100.00;101598.97;6250240;28;20057;-72
2021/01/05 01:48:31;;;;;;;19.40;10.25;;;;;;;1.12;100.00;101602.44;6250479;28;20422;-72
2021/01/05 01:51:33;;;;;;;23.95;11.10;;;;;;;1.16;100.00;101591.22;6249536;28;20053;-72
2021/01/05 01:54:58;;;;;;;21.75;11.45;;;;;;;1.10;100.00;101601.59;6250494;28;20064;-72
2021/01/05 01:58:26;;;;;;;21.60;10.23;;;;;;;1.13;100.00;101601.56;6249942;28;20060;-73
2021/01/05 02:01:42;;;;;;;18.83;9.38;;;;;;;1.12;100.00;101591.22;6249922;28;20060;-72
2021/01/05 02:04:55;;;;;;;21.27;11.02;;;;;;;1.13;100.00;101592.94;6250096;28;20057;-73
2021/01/05 02:08:08;;;;;;;20.00;10.43;;;;;;;1.21;100.00;101592.06;6249673;28;20041;-72
2021/01/05 02:11:44;;;;;;;24.15;10.73;;;;;;;1.11;100.00;101589.50;6249696;28;20052;-72
2021/01/05 02:14:59;;;;;;;21.38;10.50;;;;;;;1.09;100.00;101586.91;6249238;28;20052;-72
2021/01/05 02:18:20;;;;;;;20.23;11.05;;;;;;;1.16;100.00;101587.75;6249640;28;20056;-72
2021/01/05 02:21:25;;;;;;;20.55;10.63;;;;;;;1.10;100.00;101578.28;6249516;28;20690;-72
2021/01/05 02:24:36;;;;;;;18.85;10.02;;;;;;;1.07;100.00;101580.88;6250128;28;20095;-72
2021/01/05 02:27:44;;;;;;;18.88;9.20;;;;;;;1.04;100.00;101585.19;6249493;28;20054;-72
2021/01/05 02:30:51;;;;;;;17.60;10.10;;;;;;;1.00;100.00;101589.53;6249238;28;20041;-72
2021/01/05 02:34:03;;;;;;;19.25;9.55;;;;;;;1.03;100.00;101589.50;6249355;28;20392;-72
2021/01/05 02:37:16;;;;;;;17.63;9.65;;;;;;;1.16;100.00;101586.03;6249180;28;20057;-72
2021/01/05 02:40:32;;;;;;;18.65;9.15;;;;;;;1.09;100.00;101589.50;6248757;28;20391;-72
2021/01/05 02:44:12;;;;;;;18.58;10.20;;;;;;;0.99;100.00;101577.41;6249240;28;20049;-72
2021/01/05 02:47:32;;;;;;;15.82;9.43;;;;;;;1.03;100.00;101576.56;6248756;28;20053;-72
2021/01/05 02:50:55;;;;;;;15.50;8.50;;;;;;;1.02;100.00;101570.53;6248446;28;20052;-72
2021/01/05 02:54:22;;;;;;;16.60;9.13;;;;;;;1.05;100.00;101577.44;6248982;28;20494;-72
2021/01/05 02:57:53;;;;;;;16.98;9.18;;;;;;;1.04;100.00;101574.81;6248871;28;20045;-72
2021/01/05 03:01:45;;;;;;;15.18;8.45;;;;;;;1.04;100.00;101565.31;6247973;28;20422;-72
2021/01/05 03:04:48;;;;;;;19.13;9.57;;;;;;;0.99;100.00;101564.47;6248647;28;20049;-72
2021/01/05 03:07:50;;;;;;;17.65;9.88;;;;;;;1.00;100.00;101566.22;6248672;28;20053;-72
2021/01/05 03:10:59;;;;;;;16.67;9.60;;;;;;;1.04;100.00;101567.91;6248103;28;20080;-72
2021/01/05 03:14:07;;;;;;;18.75;10.10;;;;;;;1.01;100.00;101570.53;6248709;28;20057;-72
2021/01/05 03:17:20;;;;;;;18.90;9.90;;;;;;;1.06;100.00;101576.56;6248194;28;20584;-72
2021/01/05 03:20:26;;;;;;;22.58;10.57;;;;;;;1.02;100.00;101567.06;6247904;28;20300;-72
2021/01/05 03:23:30;;;;;;;19.58;9.38;;;;;;;1.04;100.00;101562.75;6248262;28;20049;-72
2021/01/05 03:26:34;;;;;;;17.52;10.15;;;;;;;1.04;100.00;101559.28;6246873;28;20505;-72
2021/01/05 03:29:35;;;;;;;19.15;9.50;;;;;;;1.07;100.00;101565.34;6247440;28;20053;-72
2021/01/05 03:32:37;;;;;;;19.30;10.18;;;;;;;1.05;100.00;101571.41;6248199;28;20041;-72
2021/01/05 03:35:38;;;;;;;17.92;10.20;;;;;;;1.04;100.00;101567.91;6247878;28;20053;-72
2021/01/05 03:38:39;;;;;;;17.73;10.65;;;;;;;1.07;100.00;101573.09;6247142;28;20052;-72
2021/01/05 03:41:41;;;;;;;22.92;10.98;;;;;;;1.10;100.00;101572.25;6247959;28;20052;-72
2021/01/05 03:44:42;;;;;;;19.60;10.02;;;;;;;1.12;100.00;101576.53;6247483;28;20077;-72
2021/01/05 03:47:43;;;;;;;15.90;10.02;;;;;;;1.11;100.00;101573.97;6247648;28;20050;-72
2021/01/05 03:50:45;;;;;;;16.23;9.75;;;;;;;1.08;100.00;101574.81;6246834;28;20057;-72
2021/01/05 03:53:46;;;;;;;19.50;10.77;;;;;;;1.09;100.00;101576.56;6247700;28;20498;-72
2021/01/05 03:56:46;;;;;;;15.95;9.32;;;;;;;1.07;100.00;101575.69;6246671;28;20050;-72
2021/01/05 03:59:47;;;;;;;17.75;9.60;;;;;;;1.06;100.00;101573.97;6247181;28;20104;-72
2021/01/05 04:02:49;;;;;;;17.50;9.52;;;;;;;1.17;100.00;101576.53;6247332;28;20564;-72
2021/01/05 04:05:50;;;;;;;17.58;10.00;;;;;;;1.12;100.00;101568.78;6247325;28;20053;-72
2021/01/05 04:08:50;;;;;;;16.00;10.05;;;;;;;1.05;100.00;101567.09;6246648;28;20603;-72
2021/01/05 04:11:52;;;;;;;19.60;9.50;;;;;;;1.09;100.00;101567.91;6247420;28;20052;-71
2021/01/05 04:14:52;;;;;;;15.27;9.93;;;;;;;1.15;100.00;101573.09;6247235;28;20513;-72
2021/01/05 04:17:55;;;;;;;17.25;10.07;;;;;;;1.10;100.00;101570.53;6246911;28;20053;-72
2021/01/05 04:20:56;;;;;;;17.70;9.50;;;;;;;1.06;100.00;101561.03;6246280;28;20049;-72
2021/01/05 04:23:57;;;;;;;15.70;9.00;;;;;;;1.09;100.00;101567.91;6246993;28;20115;-72
2021/01/05 04:26:58;;;;;;;16.30;10.23;;;;;;;1.10;100.00;101564.50;6246439;28;20072;-72
2021/01/05 04:29:59;;;;;;;17.00;10.65;;;;;;;1.06;100.00;101573.97;6245028;28;20095;-72
2021/01/05 04:33:03;;;;;;;17.13;9.65;;;;;;;1.12;100.00;101573.97;6245833;28;20466;-72
2021/01/05 04:36:05;;;;;;;17.33;10.30;;;;;;;1.11;100.00;101571.38;6246492;28;20049;-72
2021/01/05 04:39:07;;;;;;;17.27;10.25;;;;;;;1.08;100.00;101574.81;6245909;28;20056;-72
2021/01/05 04:42:16;;;;;;;18.17;10.43;;;;;;;1.06;100.00;101575.69;6246799;28;20049;-71
2021/01/05 04:45:23;;;;;;;19.00;10.77;;;;;;;1.09;100.00;101581.75;6245931;28;20048;-72
2021/01/05 04:48:37;;;;;;;21.15;10.32;;;;;;;1.04;100.00;101570.50;6246435;28;20057;-72
2021/01/05 04:51:45;;;;;;;22.17;11.95;;;;;;;1.04;100.00;101578.28;6246630;28;20052;-72
2021/01/05 04:54:52;;;;;;;18.07;10.90;;;;;;;1.07;100.00;101575.69;6246586;28;20056;-72
2021/01/05 04:58:03;;;;;;;18.13;10.27;;;;;;;1.29;100.00;101584.28;6246079;28;20115;-72
2021/01/05 05:01:12;;;;;;;21.15;10.73;;;;;;;1.16;100.00;101575.69;6246099;28;20049;-71
2021/01/05 05:04:20;;;;;;;23.95;10.52;;;;;;;1.09;100.00;101575.69;6246428;28;20494;-72
2021/01/05 05:07:32;;;;;;;21.55;10.73;;;;;;;1.08;100.00;101574.81;6246075;28;20049;-72
2021/01/05 05:10:38;;;;;;;20.67;10.93;;;;;;;1.04;100.00;101572.22;6245510;28;20414;-72
2021/01/05 05:13:47;;;;;;;22.13;11.95;;;;;;;1.01;100.00;101576.56;6246345;28;20076;-72
2021/01/05 05:17:06;;;;;;;26.08;13.35;;;;;;;0.98;100.00;101579.16;6246126;28;20046;-71
2021/01/05 05:20:24;;;;;;;25.60;12.48;;;;;;;1.01;100.00;101578.28;6245863;28;20049;-71
2021/01/05 05:23:33;;;;;;;22.15;11.05;;;;;;;1.03;100.00;101579.13;6246366;28;20103;-71
2021/01/05 05:26:40;;;;;;;22.38;11.63;;;;;;;0.99;100.00;101574.81;6246021;28;20053;-72
2021/01/05 05:29:46;;;;;;;23.35;12.30;;;;;;;1.01;100.00;101586.91;6245822;28;20057;-71
2021/01/05 05:32:50;;;;;;;26.05;12.23;;;;;;;1.10;100.00;101592.97;6246097;28;20045;-72
2021/01/05 05:36:42;;;;;;;25.98;12.10;;;;;;;1.02;100.00;101592.94;6245536;28;20053;-73
2021/01/05 05:39:55;;;;;;;26.85;12.80;;;;;;;1.00;100.00;101600.72;6228182;28;20057;-73
2021/01/05 05:43:13;;;;;;;32.88;13.32;;;;;;;0.98;100.00;101597.25;6245988;28;20053;-74
2021/01/05 05:46:21;;;;;;;32.08;14.73;;;;;;;1.01;100.00;101599.84;6245591;28;20049;-72
2021/01/05 05:49:37;;;;;;;28.65;13.70;;;;;;;0.98;100.00;101597.25;6247012;28;20476;-72
2021/01/05 05:52:45;;;;;;;27.40;12.82;;;;;;;1.02;100.00;101598.13;6250447;28;20533;-72
2021/01/05 05:55:51;;;;;;;27.55;13.13;;;;;;;1.06;100.00;101604.16;6250334;28;20114;-72
2021/01/05 05:58:56;;;;;;;26.52;12.68;;;;;;;1.08;100.00;101603.28;6250089;28;20045;-72
2021/01/05 06:01:57;;;;;;;30.23;14.07;;;;;;;1.00;100.00;101605.91;6249735;28;20045;-72
2021/01/05 06:04:58;;;;;;;34.95;15.65;;;;;;;1.00;100.00;101605.91;6250025;28;20072;-72
2021/01/05 06:08:00;;;;;;;30.35;13.82;;;;;;;1.04;100.00;101606.75;6249685;28;20053;-72
2021/01/05 06:11:02;;;;;;;29.25;13.77;;;;;;;1.05;100.00;101605.03;6249658;28;20410;-72
2021/01/05 06:14:03;;;;;;;31.20;14.60;;;;;;;1.06;100.00;101610.22;6250010;28;20049;-72
2021/01/05 06:17:03;;;;;;;33.38;15.02;;;;;;;1.02;100.00;101606.75;6249813;28;20057;-72
2021/01/05 06:20:05;;;;;;;27.60;13.43;;;;;;;1.05;100.00;101605.03;6249559;28;20053;-72
2021/01/05 06:23:07;;;;;;;34.97;14.77;;;;;;;1.08;100.00;101608.47;6249732;28;20046;-72
2021/01/05 06:26:08;;;;;;;34.05;15.85;;;;;;;1.06;100.00;101607.63;6249169;28;20061;-71
2021/01/05 06:29:09;;;;;;;39.47;15.75;;;;;;;1.02;100.00;101614.50;6249230;28;20046;-72
2021/01/05 06:32:10;;;;;;;39.05;15.55;;;;;;;1.05;100.00;101616.25;6249729;28;20041;-71
2021/01/05 06:35:13;;;;;;;31.13;14.60;;;;;;;1.13;100.00;101613.63;6249384;28;20080;-70
2021/01/05 06:38:15;;;;;;;31.75;15.60;;;;;;;1.06;100.00;101611.94;6243291;28;20141;-72
2021/01/05 06:41:16;;;;;;;32.42;15.77;;;;;;;1.04;100.00;101608.47;6241482;28;20487;-72
2021/01/05 06:44:17;;;;;;;32.92;15.00;;;;;;;1.06;100.00;101617.97;6237888;28;20072;-70
2021/01/05 06:47:17;;;;;;;37.03;16.65;;;;;;;1.04;100.00;101617.09;6270740;22;20107;-72
2021/01/05 06:50:19;;;;;;;39.38;15.82;;;;;;;1.02;100.00;101609.34;6248249;28;20582;-71
2021/01/05 06:53:21;;;;;;;38.50;14.63;;;;;;;1.12;100.00;101623.13;6249301;28;20512;-71
2021/01/05 06:56:22;;;;;;;46.70;15.75;;;;;;;1.20;100.00;101617.97;6248563;28;20049;-72
2021/01/05 06:59:24;;;;;;;38.97;15.95;;;;;;;1.13;100.00;101613.63;6248616;28;20461;-72
2021/01/05 07:02:25;;;;;;;36.92;16.30;;;;;;;1.11;100.00;101615.38;6248712;28;20050;-72
2021/01/05 07:05:26;;;;;;;40.00;17.02;;;;;;;1.10;100.00;101618.84;6248724;28;20057;-72
2021/01/05 07:08:28;;;;;;;34.80;15.77;;;;;;;1.14;100.00;101621.44;6248261;28;20049;-72
2021/01/05 07:11:29;;;;;;;42.58;16.20;;;;;;;1.12;100.00;101623.13;6248026;28;20055;-72
2021/01/05 07:14:30;;;;;;;39.78;16.35;;;;;;;1.16;100.00;101629.19;6248634;28;20410;-72
2021/01/05 07:17:31;;;;;;;43.45;17.70;;;;;;;1.10;100.00;101630.06;6247768;28;20051;-71
2021/01/05 07:20:31;;;;;;;39.55;16.27;;;;;;;1.15;100.00;101627.47;6248055;28;20046;-72
2021/01/05 07:23:33;;;;;;;40.33;16.38;;;;;;;1.25;100.00;101629.19;6248368;28;20060;-72
2021/01/05 07:26:35;;;;;;;39.20;16.10;;;;;;;1.16;100.00;101637.81;6247992;28;20056;-72
2021/01/05 07:29:36;;;;;;;39.47;16.08;;;;;;;1.11;100.00;101639.53;6247845;28;20487;-72
2021/01/05 07:32:37;;;;;;;52.05;17.83;;;;;;;1.15;100.00;101646.44;6248137;28;20077;-72
2021/01/05 07:35:38;;;;;;;41.53;16.90;;;;;;;1.14;100.00;101641.28;6247986;28;20104;-72
2021/01/05 07:38:40;;;;;;;46.95;16.73;;;;;;;1.16;100.00;101637.81;6247350;28;20056;-72
2021/01/05 07:41:41;;;;;;;39.25;17.00;;;;;;;1.22;100.00;101644.69;6247759;28;20053;-72
2021/01/05 07:44:43;;;;;;;46.00;18.40;;;;;;;1.15;100.00;101638.69;6247671;28;20050;-72
2021/01/05 07:47:44;;;;;;;50.00;17.85;;;;;;;1.17;100.00;101633.50;6247281;28;20056;-72
2021/01/05 07:50:44;;;;;;;48.05;18.60;;;;;;;1.14;100.00;101641.28;6246854;28;20439;-71
2021/01/05 07:53:46;;;;;;;44.65;17.85;;;;;;;1.16;100.00;101642.97;6247784;28;20430;-72
2021/01/05 07:56:47;;;;;;;45.03;17.30;;;;;;;1.16;100.00;101647.31;6247102;28;20053;-71
2021/01/05 07:59:48;;;;;;;46.10;17.50;;;;;;;1.16;100.00;101644.72;6247297;28;20045;-72
2021/01/05 08:02:49;;;;;;;50.13;18.73;;;;;;;1.23;100.00;101639.53;6247315;28;20046;-71
2021/01/05 08:05:50;;;;;;;51.25;18.65;;;;;;;1.31;100.00;101644.69;6247039;28;20068;-72
2021/01/05 08:08:52;;;;;;;42.78;17.02;;;;;;;1.25;100.00;101652.47;6246862;28;20045;-72
2021/01/05 08:11:53;;;;;;;45.75;17.42;;;;;;;1.20;100.00;101642.13;6246715;28;20045;-72
2021/01/05 08:14:53;;;;;;;48.22;18.25;;;;;;;1.17;100.00;101651.59;6247178;28;20082;-71
2021/01/05 08:17:54;;;;;;;45.08;17.48;;;;;;;1.18;100.00;101654.22;6246748;28;20053;-72
2021/01/05 08:20:55;;;;;;;44.92;17.10;;;;;;;1.23;100.00;101657.66;6246754;28;20099;-72
2021/01/05 08:23:57;;;;;;;45.97;16.95;;;;;;;1.18;100.00;101656.81;6246870;28;20049;-72
2021/01/05 08:26:58;;;;;;;43.38;16.95;;;;;;;1.23;100.00;101654.22;6236376;28;20430;-72
2021/01/05 08:29:59;;;;;;;49.47;18.30;;;;;;;1.20;100.00;101659.38;6246390;28;20049;-71
2021/01/05 08:33:01;;;;;;;44.00;18.08;;;;;;;1.25;100.00;101660.25;6246582;28;20056;-71
2021/01/05 08:36:03;;;;;;;46.13;18.88;;;;;;;1.23;100.00;101657.66;6246472;28;20060;-72
2021/01/05 08:39:06;;;;;;;42.90;16.55;;;;;;;1.29;100.00;101661.97;6246264;28;20415;-71
2021/01/05 08:42:07;;;;;;;37.17;15.90;;;;;;;1.24;100.00;101661.97;6246500;28;20049;-72
2021/01/05 08:45:09;;;;;;;44.67;15.68;;;;;;;1.23;100.00;101662.84;6246425;28;20503;-71
2021/01/05 08:48:11;;;;;;;38.13;15.60;;;;;;;1.25;100.00;101660.25;6246111;28;20053;-71
2021/01/05 08:51:12;;;;;;;39.20;16.15;;;;;;;1.26;100.00;101661.97;6245720;28;20057;-72
2021/01/05 08:54:13;;;;;;;40.05;15.85;;;;;;;1.30;100.00;101668.88;6246566;28;20132;-71
2021/01/05 08:57:15;;;;;;;31.85;14.45;;;;;;;1.31;100.00;101668.00;6245613;28;20517;-71
2021/01/05 09:00:18;;;;;;;35.03;14.73;;;;;;;1.29;100.00;101667.16;6246171;28;20183;-72
2021/01/05 09:03:19;;;;;;;35.28;15.18;;;;;;;1.30;100.00;101673.19;6245993;28;20433;-71
2021/01/05 09:06:23;;;;;;;38.90;16.08;;;;;;;1.30;100.00;101665.41;6246134;28;20057;-72
2021/01/05 09:09:25;;;;;;;37.72;14.88;;;;;;;1.38;100.00;101669.75;6245783;28;20065;-71
2021/01/05 09:12:31;;;;;;;34.58;15.77;;;;;;;1.37;100.00;101662.84;6246126;28;20395;-71
2021/01/05 09:15:32;;;;;;;36.53;14.15;;;;;;;1.38;100.00;101668.88;6246176;28;20049;-72
2021/01/05 09:18:33;;;;;;;32.05;13.65;;;;;;;1.44;100.00;101667.13;6245627;28;20399;-72
2021/01/05 09:21:34;;;;;;;37.85;14.88;;;;;;;1.40;100.00;101669.72;6245470;28;20041;-71
2021/01/05 09:24:35;;;;;;;31.50;13.40;;;;;;;1.43;100.00;101669.72;6248024;28;20068;-71
2021/01/05 09:27:36;;;;;;;34.40;14.45;;;;;;;1.42;100.00;101671.47;6250763;28;20057;-71
2021/01/05 09:30:37;;;;;;;32.30;13.13;;;;;;;1.40;100.00;101670.59;6250357;28;20080;-71
2021/01/05 09:33:38;;;;;;;37.35;13.50;;;;;;;1.42;100.00;101676.66;6250564;28;20052;-71
2021/01/05 09:36:39;;;;;;;32.03;14.20;;;;;;;1.41;100.00;101677.50;6250394;28;20049;-72
2021/01/05 09:39:41;;;;;;;39.67;14.82;;;;;;;1.53;100.00;101679.22;6250299;28;20053;-72
2021/01/05 09:42:42;;;;;;;34.90;12.82;;;;;;;1.48;100.00;101680.94;6237199;28;20046;-71
2021/01/05 09:45:45;;;;;;;41.05;14.35;;;;;;;1.49;100.00;101687.84;6245056;28;20053;-71
2021/01/05 09:48:46;;;;;;;34.40;14.77;;;;;;;1.51;100.00;101681.81;6249207;28;20132;-71
2021/01/05 09:51:47;;;;;;;38.03;14.45;;;;;;;1.43;100.00;101693.91;6249546;28;20050;-72
2021/01/05 09:54:49;;;;;;;43.45;15.57;;;;;;;1.42;100.00;101688.72;6250177;28;20395;-71
2021/01/05 09:57:50;;;;;;;37.03;15.68;;;;;;;1.52;100.00;101685.25;6249858;28;20421;-71
2021/01/05 10:00:51;;;;;;;38.30;15.25;;;;;;;1.42;100.00;101691.31;6249699;28;20088;-71
2021/01/05 10:03:52;;;;;;;42.38;16.13;;;;;;;1.44;100.00;101692.16;6250184;28;20046;-72
2021/01/05 10:06:53;;;;;;;41.60;15.27;;;;;;;1.42;100.00;101687.00;6249813;28;20052;-72
2021/01/05 10:09:55;;;;;;;37.35;14.90;;;;;;;1.43;100.00;101678.34;6248137;28;20464;-71
2021/01/05 10:12:55;;;;;;;39.83;16.08;;;;;;;1.46;100.00;101673.19;6249671;28;20049;-72
2021/01/05 10:15:56;;;;;;;44.70;15.38;;;;;;;1.46;100.00;101674.91;6249225;28;20055;-72
2021/01/05 10:18:58;;;;;;;43.70;15.68;;;;;;;1.44;100.00;101677.50;6249497;28;20103;-72
2021/01/05 10:21:58;;;;;;;41.47;16.25;;;;;;;1.50;100.00;101668.88;6249701;28;20045;-72
2021/01/05 10:25:00;;;;;;;44.88;17.40;;;;;;;1.49;100.00;101683.53;6249620;28;20134;-74
2021/01/05 10:28:01;;;;;;;41.40;16.23;;;;;;;1.58;100.00;101679.19;6245671;28;20061;-72
2021/01/05 10:31:02;;;;;;;38.05;15.77;;;;;;;1.57;100.00;101682.66;6242264;28;20746;-71
2021/01/05 10:34:03;;;;;;;34.15;15.40;;;;;;;1.55;100.00;101680.09;6240710;28;20045;-70
2021/01/05 10:37:05;;;;;;;34.45;15.68;;;;;;;1.53;100.00;101679.22;6240939;28;20050;-70
2021/01/05 10:40:08;;;;;;;32.15;15.23;;;;;;;1.60;100.00;101675.75;6231740;28;20131;-70
2021/01/05 10:43:09;;;;;;;33.30;15.07;;;;;;;1.61;100.00;101677.47;6241464;28;20045;-70
2021/01/05 10:46:10;;;;;;;36.30;15.50;;;;;;;1.66;100.00;101680.91;6244472;28;20053;-70
2021/01/05 10:49:12;;;;;;;35.95;14.27;;;;;;;1.64;100.00;101679.22;6244922;28;20053;-70
2021/01/05 10:52:15;;;;;;;31.70;13.88;;;;;;;1.65;100.00;101671.44;6245070;28;20054;-70
2021/01/05 10:55:19;;;;;;;41.53;15.32;;;;;;;1.69;100.00;101680.94;6244722;28;20422;-69
2021/01/05 10:58:20;;;;;;;28.30;13.65;;;;;;;1.73;100.00;101677.47;6244901;28;20057;-70
2021/01/05 11:01:21;;;;;;;30.52;14.68;;;;;;;1.76;100.00;101676.59;6244627;28;20052;-70
2021/01/05 11:04:21;;;;;;;29.08;13.95;;;;;;;1.73;100.00;101677.47;6245057;28;20191;-69
2021/01/05 11:07:22;;;;;;;31.48;13.23;;;;;;;1.86;100.00;101672.22;6244309;28;20239;-70
2021/01/05 11:10:24;;;;;;;26.63;13.55;;;;;;;1.83;100.00;101670.53;6243883;28;20083;-70
2021/01/05 11:13:25;;;;;;;28.08;13.30;;;;;;;1.77;100.00;101674.00;6245130;28;20111;-70
2021/01/05 11:16:26;;;;;;;23.80;11.65;;;;;;;1.84;100.00;101671.38;6244477;28;20109;-70
2021/01/05 11:19:26;;;;;;;26.10;12.07;;;;;;;1.96;100.00;101666.19;6243959;28;20403;-70
2021/01/05 11:22:28;;;;;;;20.85;10.98;;;;;;;1.98;100.00;101656.66;6243133;28;20049;-71
2021/01/05 11:25:31;;;;;;;22.67;11.90;;;;;;;1.89;100.00;101654.09;6230432;28;20053;-70
2021/01/05 11:28:32;;;;;;;22.20;11.68;;;;;;;1.87;100.00;101646.34;6231643;28;20050;-70
2021/01/05 11:31:33;;;;;;;18.38;10.85;;;;;;;1.90;100.00;101646.31;6231909;28;20052;-71
2021/01/05 11:34:34;;;;;;;20.05;10.15;;;;;;;1.98;100.00;101651.47;6230670;28;20060;-70
2021/01/05 11:37:35;;;;;;;21.77;11.68;;;;;;;1.95;100.00;101643.69;6231892;28;20054;-70
2021/01/05 11:40:37;;;;;;;22.38;12.32;;;;;;;1.98;100.00;101641.09;6229485;28;20053;-71
2021/01/05 11:43:38;;;;;;;20.55;10.93;;;;;;;1.98;100.00;101635.91;6230819;28;20131;-73
2021/01/05 11:46:39;;;;;;;21.50;11.25;;;;;;;1.96;100.00;101635.06;6230260;28;20049;-73
2021/01/05 11:49:40;;;;;;;19.20;11.30;;;;;;;1.97;100.00;101631.59;6229083;28;20054;-71
2021/01/05 11:52:41;;;;;;;22.90;10.23;;;;;;;1.98;100.00;101628.16;6232544;28;20049;-71
2021/01/05 11:55:43;;;;;;;19.35;10.23;;;;;;;2.02;100.00;101630.72;6230397;28;20080;-70
2021/01/05 11:58:44;;;;;;;21.67;11.32;;;;;;;2.02;100.00;101624.69;6231848;28;20068;-71
2021/01/05 12:01:44;;;;;;;20.73;9.82;;;;;;;2.06;100.00;101622.94;6229066;28;20046;-71
2021/01/05 12:04:45;;;;;;;17.10;9.90;;;;;;;2.17;100.00;101622.00;6227652;28;20127;-71
2021/01/05 12:07:46;;;;;;;21.73;11.73;;;;;;;2.23;100.00;101619.41;6221985;28;20050;-71
2021/01/05 12:10:48;;;;;;;16.10;8.52;;;;;;;2.22;100.00;101611.59;6218346;28;20047;-71
2021/01/05 12:13:50;;;;;;;17.50;9.25;;;;;;;2.24;100.00;101613.34;6218530;28;20058;-71
2021/01/05 12:16:51;;;;;;;15.88;9.15;;;;;;;2.28;100.00;101619.38;6223364;28;20056;-71
2021/01/05 12:19:53;;;;;;;17.73;8.77;;;;;;;2.35;100.00;101608.09;6231279;28;20061;-71
2021/01/05 12:22:54;;;;;;;15.48;8.00;;;;;;;2.29;100.00;101610.72;6231085;28;20567;-71
2021/01/05 12:25:56;;;;;;;14.43;8.00;;;;;;;2.29;100.00;101603.81;6230529;28;20062;-71
2021/01/05 12:28:57;;;;;;;13.52;7.55;;;;;;;2.35;100.00;101610.69;6226270;28;20064;-71
2021/01/05 12:32:00;;;;;;;15.63;8.18;;;;;;;2.31;100.00;101602.91;6229124;28;20056;-71
2021/01/05 12:35:01;;;;;;;15.80;7.07;;;;;;;2.51;100.00;101601.94;6231779;28;20426;-70
2021/01/05 12:38:02;;;;;;;18.17;9.32;;;;;;;2.43;100.00;101598.53;6232833;28;20077;-71
2021/01/05 12:41:04;;;;;;;16.40;7.47;;;;;;;2.42;100.00;101606.34;6231257;28;20072;-70
2021/01/05 12:44:07;;;;;;;14.82;7.90;;;;;;;2.44;100.00;101597.66;6228988;28;20049;-70
2021/01/05 12:47:08;;;;;;;13.38;7.57;;;;;;;2.48;100.00;101601.09;6229801;28;20057;-71
2021/01/05 12:50:09;;;;;;;14.80;7.50;;;;;;;2.43;100.00;101595.09;6229654;28;20123;-69
2021/01/05 12:53:10;;;;;;;12.52;6.97;;;;;;;2.49;100.00;101592.44;6229133;28;20037;-70
2021/01/05 12:56:17;;;;;;;17.35;7.95;;;;;;;2.43;100.00;101590.75;6228695;28;20561;-70
2021/01/05 12:59:18;;;;;;;16.95;8.57;;;;;;;2.37;100.00;101584.75;6229845;28;20045;-70
2021/01/05 13:02:21;;;;;;;13.90;7.93;;;;;;;2.40;100.00;101597.69;6228681;28;20048;-70
2021/01/05 13:05:22;;;;;;;12.93;7.68;;;;;;;2.43;100.00;101585.56;6229945;28;20052;-70
2021/01/05 13:08:23;;;;;;;13.80;7.60;;;;;;;2.41;100.00;101589.91;6229086;28;20412;-71
2021/01/05 13:11:26;;;;;;;13.05;7.45;;;;;;;2.42;100.00;101588.19;6229051;28;20038;-71
2021/01/05 13:14:27;;;;;;;16.23;8.57;;;;;;;2.49;100.00;101585.50;6229515;28;20046;-70
2021/01/05 13:17:28;;;;;;;15.13;7.05;;;;;;;2.53;100.00;101587.22;6229559;28;20072;-70
2021/01/05 13:20:29;;;;;;;16.67;8.15;;;;;;;2.56;100.00;101590.69;6228208;28;20422;-70
2021/01/05 13:23:30;;;;;;;17.92;7.75;;;;;;;2.52;100.00;101587.25;6230328;28;20096;-70
2021/01/05 13:26:32;;;;;;;16.05;8.23;;;;;;;2.52;100.00;101593.28;6227479;28;20119;-70
2021/01/05 13:29:34;;;;;;;13.45;6.97;;;;;;;2.52;100.00;101589.84;6228249;28;20748;-70
2021/01/05 13:32:35;;;;;;;14.55;8.20;;;;;;;2.60;100.00;101584.59;6228055;28;20529;-71
2021/01/05 13:35:41;;;;;;;19.65;8.15;;;;;;;2.56;100.00;101593.28;6236143;28;20046;-70
2021/01/05 13:38:42;;;;;;;15.75;7.65;;;;;;;2.59;100.00;101590.63;6227916;28;20057;-71
2021/01/05 13:41:44;;;;;;;17.23;8.18;;;;;;;2.57;100.00;101590.66;6230258;28;20060;-70
2021/01/05 13:44:46;;;;;;;16.92;8.32;;;;;;;2.57;100.00;101582.88;6228252;28;20057;-70
2021/01/05 13:47:47;;;;;;;16.10;7.88;;;;;;;2.55;100.00;101587.22;6227354;28;20056;-71
2021/01/05 13:50:49;;;;;;;19.42;7.97;;;;;;;2.56;100.00;101594.13;6228943;28;20054;-70
2021/01/05 13:53:50;;;;;;;12.75;7.28;;;;;;;2.58;100.00;101594.97;6227957;28;20056;-71
2021/01/05 13:56:56;;;;;;;14.82;7.95;;;;;;;2.56;100.00;101590.69;6229953;28;20109;-71
2021/01/05 13:59:56;;;;;;;15.18;7.82;;;;;;;2.60;100.00;101593.25;6227835;28;20483;-69